sensor_id;sensor_type;location;lat;lon;timestamp;pressure;altitude;pressure_sealevel;temperature;humidity
59971;BME280;45825;45.434;9.116;2023-05-20T00:00:17;100415.00;;;15.64;100.00
59971;BME280;45825;45.434;9.116;2023-05-20T00:02:42;100418.00;;;15.59;100.00
59971;BME280;45825;45.434;9.116;2023-05-20T00:05:08;100411.50;;;15.63;100.00
59971;BME280;45825;45.434;9.116;2023-05-20T00:07:33;100408.69;;;15.54;100.00
59971;BME280;45825;45.434;9.116;2023-05-20T00:09:59;100412.69;;;15.59;100.00
59971;BME280;45825;45.434;9.116;2023-05-20T00:12:24;100400.06;;;15.63;100.00
59971;BME280;45825;45.434;9.116;2023-05-20T00:14:49;100406.31;;;15.62;100.00
59971;BME280;45825;45.434;9.116;2023-05-20T00:17:15;100410.72;;;15.50;100.00
59971;BME280;45825;45.434;9.116;2023-05-20T00:19:40;100401.75;;;15.64;100.00
59971;BME280;45825;45.434;9.116;2023-05-20T00:22:05;100396.09;;;15.69;100.00
59971;BME280;45825;45.434;9.116;2023-05-20T00:24:31;100393.88;;;15.62;100.00
59971;BME280;45825;45.434;9.116;2023-05-20T00:26:56;100400.63;;;15.55;100.00
59971;BME280;45825;45.434;9.116;2023-05-20T00:29:21;100400.50;;;15.57;100.00
59971;BME280;45825;45.434;9.116;2023-05-20T00:31:47;100402.09;;;15.59;100.00
59971;BME280;45825;45.434;9.116;2023-05-20T00:34:12;100403.66;;;15.62;100.00
59971;BME280;45825;45.434;9.116;2023-05-20T00:36:37;100400.88;;;15.63;100.00
59971;BME280;45825;45.434;9.116;2023-05-20T00:39:03;100402.47;;;15.66;100.00
59971;BME280;45825;45.434;9.116;2023-05-20T00:41:28;100398.75;;;15.69;100.00
59971;BME280;45825;45.434;9.116;2023-05-20T00:43:54;100391.84;;;15.66;100.00
59971;BME280;45825;45.434;9.116;2023-05-20T00:46:21;100391.41;;;15.72;100.00
59971;BME280;45825;45.434;9.116;2023-05-20T00:48:47;100398.41;;;15.73;100.00
59971;BME280;45825;45.434;9.116;2023-05-20T00:51:14;100400.91;;;15.75;100.00
59971;BME280;45825;45.434;9.116;2023-05-20T00:53:40;100397.47;;;15.86;100.00
59971;BME280;45825;45.434;9.116;2023-05-20T00:56:07;100387.94;;;15.83;100.00
59971;BME280;45825;45.434;9.116;2023-05-20T00:58:33;100396.41;;;15.88;100.00
59971;BME280;45825;45.434;9.116;2023-05-20T01:01:01;100385.47;;;15.93;100.00
59971;BME280;45825;45.434;9.116;2023-05-20T01:03:27;100379.97;;;15.83;100.00
59971;BME280;45825;45.434;9.116;2023-05-20T01:05:52;100382.13;;;15.78;100.00
59971;BME280;45825;45.434;9.116;2023-05-20T01:08:18;100390.06;;;15.67;100.00
59971;BME280;45825;45.434;9.116;2023-05-20T01:10:45;100388.34;;;15.65;100.00
59971;BME280;45825;45.434;9.116;2023-05-20T01:13:20;100389.81;;;15.70;100.00
59971;BME280;45825;45.434;9.116;2023-05-20T01:15:48;100392.59;;;15.68;100.00
59971;BME280;45825;45.434;9.116;2023-05-20T01:18:16;100390.41;;;15.62;100.00
59971;BME280;45825;45.434;9.116;2023-05-20T01:20:50;100386.63;;;15.53;100.00
59971;BME280;45825;45.434;9.116;2023-05-20T01:23:17;100394.47;;;15.55;100.00
59971;BME280;45825;45.434;9.116;2023-05-20T01:25:43;100395.81;;;15.60;100.00
59971;BME280;45825;45.434;9.116;2023-05-20T01:28:08;100388.72;;;15.61;100.00
59971;BME280;45825;45.434;9.116;2023-05-20T01:30:38;100383.31;;;15.74;100.00
59971;BME280;45825;45.434;9.116;2023-05-20T01:33:09;100388.09;;;15.57;100.00
59971;BME280;45825;45.434;9.116;2023-05-20T01:35:35;100381.94;;;15.57;100.00
59971;BME280;45825;45.434;9.116;2023-05-20T01:38:03;100379.84;;;15.73;100.00
59971;BME280;45825;45.434;9.116;2023-05-20T01:40:31;100379.34;;;15.79;100.00
59971;BME280;45825;45.434;9.116;2023-05-20T01:42:57;100381.63;;;15.73;100.00
59971;BME280;45825;45.434;9.116;2023-05-20T01:45:24;100374.03;;;15.79;100.00
59971;BME280;45825;45.434;9.116;2023-05-20T01:47:49;100363.78;;;15.75;100.00
59971;BME280;45825;45.434;9.116;2023-05-20T01:50:14;100369.31;;;15.72;100.00
59971;BME280;45825;45.434;9.116;2023-05-20T01:52:40;100367.13;;;15.65;100.00
59971;BME280;45825;45.434;9.116;2023-05-20T01:55:05;100365.22;;;15.68;100.00
59971;BME280;45825;45.434;9.116;2023-05-20T01:57:30;100369.78;;;15.65;100.00
59971;BME280;45825;45.434;9.116;2023-05-20T01:59:56;100357.09;;;15.58;100.00
59971;BME280;45825;45.434;9.116;2023-05-20T02:02:21;100351.81;;;15.58;100.00
59971;BME280;45825;45.434;9.116;2023-05-20T02:04:49;100346.88;;;15.64;100.00
59971;BME280;45825;45.434;9.116;2023-05-20T02:07:15;100350.50;;;15.63;100.00
59971;BME280;45825;45.434;9.116;2023-05-20T02:12:10;100342.06;;;15.58;100.00
59971;BME280;45825;45.434;9.116;2023-05-20T02:14:41;100348.53;;;15.54;100.00
59971;BME280;45825;45.434;9.116;2023-05-20T02:17:06;100342.84;;;15.47;100.00
59971;BME280;45825;45.434;9.116;2023-05-20T02:19:31;100344.66;;;15.47;100.00
59971;BME280;45825;45.434;9.116;2023-05-20T02:21:57;100346.13;;;15.51;100.00
59971;BME280;45825;45.434;9.116;2023-05-20T02:24:22;100332.63;;;15.54;100.00
59971;BME280;45825;45.434;9.116;2023-05-20T02:26:47;100337.81;;;15.56;100.00
59971;BME280;45825;45.434;9.116;2023-05-20T02:29:15;100333.38;;;15.56;100.00
59971;BME280;45825;45.434;9.116;2023-05-20T02:31:41;100341.31;;;15.56;100.00
59971;BME280;45825;45.434;9.116;2023-05-20T02:34:06;100331.63;;;15.44;100.00
59971;BME280;45825;45.434;9.116;2023-05-20T02:36:31;100338.25;;;15.49;100.00
59971;BME280;45825;45.434;9.116;2023-05-20T02:38:57;100334.78;;;15.49;100.00
59971;BME280;45825;45.434;9.116;2023-05-20T02:41:22;100332.75;;;15.53;100.00
59971;BME280;45825;45.434;9.116;2023-05-20T02:43:47;100323.50;;;15.58;100.00
59971;BME280;45825;45.434;9.116;2023-05-20T02:46:13;100317.66;;;15.53;100.00
59971;BME280;45825;45.434;9.116;2023-05-20T02:48:39;100326.09;;;15.47;100.00
59971;BME280;45825;45.434;9.116;2023-05-20T02:51:05;100321.41;;;15.50;100.00
59971;BME280;45825;45.434;9.116;2023-05-20T02:53:30;100323.31;;;15.48;100.00
59971;BME280;45825;45.434;9.116;2023-05-20T02:55:56;100324.41;;;15.46;100.00
59971;BME280;45825;45.434;9.116;2023-05-20T02:58:21;100325.75;;;15.52;100.00
59971;BME280;45825;45.434;9.116;2023-05-20T03:00:51;100323.31;;;15.48;100.00
59971;BME280;45825;45.434;9.116;2023-05-20T03:03:16;100318.16;;;15.47;100.00
59971;BME280;45825;45.434;9.116;2023-05-20T03:05:41;100323.28;;;15.37;100.00
59971;BME280;45825;45.434;9.116;2023-05-20T03:08:10;100324.25;;;15.36;100.00
59971;BME280;45825;45.434;9.116;2023-05-20T03:10:37;100318.16;;;15.47;100.00
59971;BME280;45825;45.434;9.116;2023-05-20T03:13:06;100320.09;;;15.45;100.00
59971;BME280;45825;45.434;9.116;2023-05-20T03:15:36;100317.53;;;15.43;100.00
59971;BME280;45825;45.434;9.116;2023-05-20T03:18:02;100315.13;;;15.40;100.00
59971;BME280;45825;45.434;9.116;2023-05-20T03:20:27;100301.25;;;15.36;100.00
59971;BME280;45825;45.434;9.116;2023-05-20T03:22:56;100303.38;;;15.31;100.00
59971;BME280;45825;45.434;9.116;2023-05-20T03:25:23;100307.50;;;15.35;100.00
59971;BME280;45825;45.434;9.116;2023-05-20T03:27:49;100297.47;;;15.28;100.00
59971;BME280;45825;45.434;9.116;2023-05-20T03:30:15;100295.09;;;15.36;100.00
59971;BME280;45825;45.434;9.116;2023-05-20T03:32:41;100294.97;;;15.38;100.00
59971;BME280;45825;45.434;9.116;2023-05-20T03:35:06;100286.41;;;15.34;100.00
59971;BME280;45825;45.434;9.116;2023-05-20T03:37:32;100288.81;;;15.37;100.00
59971;BME280;45825;45.434;9.116;2023-05-20T03:39:58;100277.50;;;15.35;100.00
59971;BME280;45825;45.434;9.116;2023-05-20T03:42:23;100271.47;;;15.33;100.00
59971;BME280;45825;45.434;9.116;2023-05-20T03:44:48;100276.66;;;15.34;100.00
59971;BME280;45825;45.434;9.116;2023-05-20T03:47:13;100275.09;;;15.32;100.00
59971;BME280;45825;45.434;9.116;2023-05-20T03:49:39;100279.41;;;15.33;100.00
59971;BME280;45825;45.434;9.116;2023-05-20T03:52:06;100271.81;;;15.28;100.00
59971;BME280;45825;45.434;9.116;2023-05-20T03:54:31;100271.09;;;15.26;100.00
59971;BME280;45825;45.434;9.116;2023-05-20T03:56:56;100280.97;;;15.24;100.00
59971;BME280;45825;45.434;9.116;2023-05-20T03:59:22;100277.78;;;15.19;100.00
59971;BME280;45825;45.434;9.116;2023-05-20T04:01:47;100284.56;;;15.23;100.00
59971;BME280;45825;45.434;9.116;2023-05-20T04:04:13;100284.06;;;15.18;100.00
59971;BME280;45825;45.434;9.116;2023-05-20T04:06:38;100284.44;;;15.25;100.00
59971;BME280;45825;45.434;9.116;2023-05-20T04:09:04;100282.75;;;15.23;100.00
59971;BME280;45825;45.434;9.116;2023-05-20T04:11:30;100281.41;;;15.18;100.00
59971;BME280;45825;45.434;9.116;2023-05-20T04:13:55;100281.78;;;15.25;100.00
59971;BME280;45825;45.434;9.116;2023-05-20T04:16:20;100273.31;;;15.08;100.00
59971;BME280;45825;45.434;9.116;2023-05-20T04:18:46;100273.81;;;15.13;100.00
59971;BME280;45825;45.434;9.116;2023-05-20T04:21:12;100279.97;;;15.14;100.00
59971;BME280;45825;45.434;9.116;2023-05-20T04:23:37;100283.63;;;15.00;100.00
59971;BME280;45825;45.434;9.116;2023-05-20T04:26:03;100274.47;;;15.04;100.00
59971;BME280;45825;45.434;9.116;2023-05-20T04:28:28;100283.06;;;15.07;100.00
59971;BME280;45825;45.434;9.116;2023-05-20T04:30:59;100278.72;;;15.06;100.00
59971;BME280;45825;45.434;9.116;2023-05-20T04:33:26;100284.50;;;15.12;100.00
59971;BME280;45825;45.434;9.116;2023-05-20T04:35:52;100281.66;;;15.15;100.00
59971;BME280;45825;45.434;9.116;2023-05-20T04:38:17;100271.78;;;15.17;100.00
59971;BME280;45825;45.434;9.116;2023-05-20T04:40:43;100266.81;;;15.12;100.00
59971;BME280;45825;45.434;9.116;2023-05-20T04:43:08;100266.72;;;15.14;100.00
59971;BME280;45825;45.434;9.116;2023-05-20T04:45:35;100256.94;;;15.14;100.00
59971;BME280;45825;45.434;9.116;2023-05-20T04:48:00;100254.06;;;15.17;100.00
59971;BME280;45825;45.434;9.116;2023-05-20T04:50:26;100252.38;;;15.16;100.00
59971;BME280;45825;45.434;9.116;2023-05-20T04:52:51;100252.69;;;15.12;100.00
59971;BME280;45825;45.434;9.116;2023-05-20T04:55:16;100252.84;;;15.10;100.00
59971;BME280;45825;45.434;9.116;2023-05-20T04:57:42;100244.75;;;15.12;100.00
59971;BME280;45825;45.434;9.116;2023-05-20T05:00:09;100250.56;;;15.17;100.00
59971;BME280;45825;45.434;9.116;2023-05-20T05:02:36;100252.22;;;15.06;100.00
59971;BME280;45825;45.434;9.116;2023-05-20T05:05:02;100242.97;;;15.12;100.00
59971;BME280;45825;45.434;9.116;2023-05-20T05:07:28;100249.09;;;15.01;100.00
59971;BME280;45825;45.434;9.116;2023-05-20T05:09:53;100230.91;;;15.08;100.00
59971;BME280;45825;45.434;9.116;2023-05-20T05:12:18;100233.09;;;15.14;100.00
59971;BME280;45825;45.434;9.116;2023-05-20T05:14:44;100239.88;;;15.18;100.00
59971;BME280;45825;45.434;9.116;2023-05-20T05:17:09;100237.66;;;15.12;100.00
59971;BME280;45825;45.434;9.116;2023-05-20T05:19:34;100231.69;;;15.21;100.00
59971;BME280;45825;45.434;9.116;2023-05-20T05:22:00;100227.16;;;15.11;100.00
59971;BME280;45825;45.434;9.116;2023-05-20T05:24:25;100226.81;;;15.15;100.00
59971;BME280;45825;45.434;9.116;2023-05-20T05:26:54;100229.03;;;15.21;100.00
59971;BME280;45825;45.434;9.116;2023-05-20T05:29:19;100230.25;;;15.29;100.00
59971;BME280;45825;45.434;9.116;2023-05-20T05:31:45;100226.84;;;15.27;100.00
59971;BME280;45825;45.434;9.116;2023-05-20T05:34:10;100227.13;;;15.35;100.00
59971;BME280;45825;45.434;9.116;2023-05-20T05:36:38;100228.44;;;15.29;100.00
59971;BME280;45825;45.434;9.116;2023-05-20T05:39:03;100227.38;;;15.32;100.00
59971;BME280;45825;45.434;9.116;2023-05-20T05:41:29;100221.72;;;15.36;100.00
59971;BME280;45825;45.434;9.116;2023-05-20T05:43:54;100220.41;;;15.42;100.00
59971;BME280;45825;45.434;9.116;2023-05-20T05:46:19;100219.31;;;15.45;100.00
59971;BME280;45825;45.434;9.116;2023-05-20T05:48:45;100218.56;;;15.43;100.00
59971;BME280;45825;45.434;9.116;2023-05-20T05:51:14;100212.81;;;15.49;100.00
59971;BME280;45825;45.434;9.116;2023-05-20T05:53:40;100217.13;;;15.39;100.00
59971;BME280;45825;45.434;9.116;2023-05-20T05:56:05;100213.97;;;15.33;100.00
59971;BME280;45825;45.434;9.116;2023-05-20T05:58:31;100217.25;;;15.37;100.00
59971;BME280;45825;45.434;9.116;2023-05-20T06:00:57;100217.84;;;15.41;100.00
59971;BME280;45825;45.434;9.116;2023-05-20T06:03:22;100207.75;;;15.46;100.00
59971;BME280;45825;45.434;9.116;2023-05-20T06:05:48;100215.94;;;15.43;100.00
59971;BME280;45825;45.434;9.116;2023-05-20T06:08:13;100214.97;;;15.44;100.00
59971;BME280;45825;45.434;9.116;2023-05-20T06:10:39;100210.16;;;15.49;100.00
59971;BME280;45825;45.434;9.116;2023-05-20T06:13:04;100210.16;;;15.49;100.00
59971;BME280;45825;45.434;9.116;2023-05-20T06:15:29;100209.94;;;15.63;100.00
59971;BME280;45825;45.434;9.116;2023-05-20T06:17:55;100212.72;;;15.62;100.00
59971;BME280;45825;45.434;9.116;2023-05-20T06:20:20;100217.78;;;15.76;100.00
59971;BME280;45825;45.434;9.116;2023-05-20T06:22:46;100212.84;;;15.83;100.00
59971;BME280;45825;45.434;9.116;2023-05-20T06:25:11;100209.47;;;15.81;100.00
59971;BME280;45825;45.434;9.116;2023-05-20T06:27:37;100212.13;;;15.81;100.00
59971;BME280;45825;45.434;9.116;2023-05-20T06:30:03;100209.72;;;15.78;100.00
59971;BME280;45825;45.434;9.116;2023-05-20T06:32:29;100207.78;;;15.80;100.00
59971;BME280;45825;45.434;9.116;2023-05-20T06:34:54;100212.38;;;15.78;100.00
59971;BME280;45825;45.434;9.116;2023-05-20T06:37:20;100216.94;;;15.76;100.00
59971;BME280;45825;45.434;9.116;2023-05-20T06:39:48;100212.38;;;15.78;100.00
59971;BME280;45825;45.434;9.116;2023-05-20T06:42:17;100206.09;;;15.68;100.00
59971;BME280;45825;45.434;9.116;2023-05-20T06:44:43;100210.91;;;15.74;100.00
59971;BME280;45825;45.434;9.116;2023-05-20T06:47:08;100214.88;;;15.79;100.00
59971;BME280;45825;45.434;9.116;2023-05-20T06:49:33;100214.53;;;15.84;100.00
59971;BME280;45825;45.434;9.116;2023-05-20T06:51:59;100215.38;;;15.85;100.00
59971;BME280;45825;45.434;9.116;2023-05-20T06:54:26;100205.16;;;15.91;100.00
59971;BME280;45825;45.434;9.116;2023-05-20T06:56:51;100205.25;;;15.90;100.00
59971;BME280;45825;45.434;9.116;2023-05-20T06:59:17;100211.06;;;15.95;100.00
59971;BME280;45825;45.434;9.116;2023-05-20T07:01:42;100214.31;;;15.99;100.00
59971;BME280;45825;45.434;9.116;2023-05-20T07:04:07;100213.22;;;16.01;100.00
59971;BME280;45825;45.434;9.116;2023-05-20T07:06:32;100220.22;;;16.02;100.00
59971;BME280;45825;45.434;9.116;2023-05-20T07:08:58;100215.41;;;15.96;100.00
59971;BME280;45825;45.434;9.116;2023-05-20T07:11:23;100214.81;;;15.92;100.00
59971;BME280;45825;45.434;9.116;2023-05-20T07:13:48;100217.69;;;15.89;100.00
59971;BME280;45825;45.434;9.116;2023-05-20T07:16:14;100215.13;;;15.88;100.00
59971;BME280;45825;45.434;9.116;2023-05-20T07:18:39;100218.03;;;15.85;100.00
59971;BME280;45825;45.434;9.116;2023-05-20T07:21:04;100219.81;;;15.84;100.00
59971;BME280;45825;45.434;9.116;2023-05-20T07:23:30;100211.63;;;15.87;100.00
59971;BME280;45825;45.434;9.116;2023-05-20T07:25:55;100204.63;;;15.86;100.00
59971;BME280;45825;45.434;9.116;2023-05-20T07:28:20;100208.38;;;15.84;100.00
59971;BME280;45825;45.434;9.116;2023-05-20T07:30:46;100199.69;;;15.82;100.00
59971;BME280;45825;45.434;9.116;2023-05-20T07:33:15;100206.72;;;15.83;100.00
59971;BME280;45825;45.434;9.116;2023-05-20T07:35:41;100215.13;;;15.88;100.00
59971;BME280;45825;45.434;9.116;2023-05-20T07:38:07;100206.31;;;15.87;100.00
59971;BME280;45825;45.434;9.116;2023-05-20T07:40:32;100202.22;;;15.83;100.00
59971;BME280;45825;45.434;9.116;2023-05-20T07:42:57;100204.53;;;15.88;100.00
59971;BME280;45825;45.434;9.116;2023-05-20T07:45:22;100203.34;;;15.92;100.00
59971;BME280;45825;45.434;9.116;2023-05-20T07:47:48;100194.44;;;15.93;100.00
59971;BME280;45825;45.434;9.116;2023-05-20T07:50:13;100198.25;;;16.00;100.00
59971;BME280;45825;45.434;9.116;2023-05-20T07:52:38;100195.75;;;15.99;100.00
59971;BME280;45825;45.434;9.116;2023-05-20T07:55:04;100191.88;;;16.03;100.00
59971;BME280;45825;45.434;9.116;2023-05-20T07:57:29;100189.56;;;16.10;100.00
59971;BME280;45825;45.434;9.116;2023-05-20T07:59:55;100199.09;;;16.12;100.00
59971;BME280;45825;45.434;9.116;2023-05-20T08:02:20;100186.81;;;16.00;100.00
59971;BME280;45825;45.434;9.116;2023-05-20T08:04:45;100186.91;;;16.10;100.00
59971;BME280;45825;45.434;9.116;2023-05-20T08:07:11;100198.75;;;16.17;100.00
59971;BME280;45825;45.434;9.116;2023-05-20T08:09:36;100192.72;;;16.15;100.00
59971;BME280;45825;45.434;9.116;2023-05-20T08:12:01;100193.56;;;16.04;100.00
59971;BME280;45825;45.434;9.116;2023-05-20T08:14:27;100189.31;;;16.13;100.00
59971;BME280;45825;45.434;9.116;2023-05-20T08:16:52;100198.84;;;16.15;100.00
59971;BME280;45825;45.434;9.116;2023-05-20T08:19:17;100189.56;;;16.21;100.00
59971;BME280;45825;45.434;9.116;2023-05-20T08:21:43;100191.38;;;16.20;100.00
59971;BME280;45825;45.434;9.116;2023-05-20T08:24:08;100186.44;;;16.16;100.00
59971;BME280;45825;45.434;9.116;2023-05-20T08:26:33;100192.56;;;16.16;100.00
59971;BME280;45825;45.434;9.116;2023-05-20T08:28:59;100194.41;;;16.16;100.00
59971;BME280;45825;45.434;9.116;2023-05-20T08:31:24;100194.03;;;16.20;100.00
59971;BME280;45825;45.434;9.116;2023-05-20T08:33:49;100195.25;;;16.05;100.00
59971;BME280;45825;45.434;9.116;2023-05-20T08:36:15;100200.81;;;16.02;100.00
59971;BME280;45825;45.434;9.116;2023-05-20T08:38:40;100207.91;;;16.01;100.00
59971;BME280;45825;45.434;9.116;2023-05-20T08:41:06;100211.88;;;16.07;100.00
59971;BME280;45825;45.434;9.116;2023-05-20T08:43:31;100209.59;;;16.14;100.00
59971;BME280;45825;45.434;9.116;2023-05-20T08:45:56;100213.94;;;16.15;100.00
59971;BME280;45825;45.434;9.116;2023-05-20T08:48:25;100216.47;;;16.16;100.00
59971;BME280;45825;45.434;9.116;2023-05-20T08:50:52;100225.88;;;16.09;100.00
59971;BME280;45825;45.434;9.116;2023-05-20T08:53:21;100230.69;;;16.15;100.00
59971;BME280;45825;45.434;9.116;2023-05-20T08:55:54;100220.44;;;16.22;100.00
59971;BME280;45825;45.434;9.116;2023-05-20T08:58:22;100227.56;;;16.22;100.00
59971;BME280;45825;45.434;9.116;2023-05-20T09:00:48;100232.13;;;16.31;100.00
59971;BME280;45825;45.434;9.116;2023-05-20T09:03:13;100232.94;;;16.43;100.00
59971;BME280;45825;45.434;9.116;2023-05-20T09:05:39;100239.34;;;16.40;100.00
59971;BME280;45825;45.434;9.116;2023-05-20T09:08:09;100242.25;;;16.37;100.00
59971;BME280;45825;45.434;9.116;2023-05-20T09:10:35;100247.47;;;16.39;100.00
59971;BME280;45825;45.434;9.116;2023-05-20T09:13:01;100247.34;;;16.29;100.00
59971;BME280;45825;45.434;9.116;2023-05-20T09:15:29;100249.16;;;16.40;100.00
59971;BME280;45825;45.434;9.116;2023-05-20T09:17:54;100249.16;;;16.28;100.00
59971;BME280;45825;45.434;9.116;2023-05-20T09:20:21;100252.53;;;16.19;100.00
59971;BME280;45825;45.434;9.116;2023-05-20T09:22:50;100254.69;;;16.14;100.00
59971;BME280;45825;45.434;9.116;2023-05-20T09:25:19;100259.66;;;16.07;100.00
59971;BME280;45825;45.434;9.116;2023-05-20T09:27:44;100259.78;;;16.05;100.00
59971;BME280;45825;45.434;9.116;2023-05-20T09:30:10;100266.78;;;15.95;100.00
59971;BME280;45825;45.434;9.116;2023-05-20T09:32:37;100262.19;;;15.97;100.00
59971;BME280;45825;45.434;9.116;2023-05-20T09:35:02;100255.47;;;16.04;100.00
59971;BME280;45825;45.434;9.116;2023-05-20T09:37:30;100263.03;;;15.98;100.00
59971;BME280;45825;45.434;9.116;2023-05-20T09:40:05;100263.16;;;16.08;100.00
59971;BME280;45825;45.434;9.116;2023-05-20T09:42:37;100263.63;;;16.13;100.00
59971;BME280;45825;45.434;9.116;2023-05-20T09:45:04;100267.63;;;16.18;100.00
59971;BME280;45825;45.434;9.116;2023-05-20T09:47:31;100270.16;;;16.20;100.00
59971;BME280;45825;45.434;9.116;2023-05-20T09:49:56;100265.19;;;16.27;100.00
59971;BME280;45825;45.434;9.116;2023-05-20T09:52:22;100261.31;;;16.31;100.00
59971;BME280;45825;45.434;9.116;2023-05-20T09:54:48;100259.53;;;16.31;100.00
59971;BME280;45825;45.434;9.116;2023-05-20T09:57:15;100263.88;;;16.32;100.00
59971;BME280;45825;45.434;9.116;2023-05-20T09:59:40;100270.88;;;16.33;100.00
59971;BME280;45825;45.434;9.116;2023-05-20T10:02:07;100268.81;;;16.37;100.00
59971;BME280;45825;45.434;9.116;2023-05-20T10:04:34;100265.69;;;16.43;100.00
59971;BME280;45825;45.434;9.116;2023-05-20T10:07:28;100262.06;;;16.44;100.00
59971;BME280;45825;45.434;9.116;2023-05-20T10:15:52;100266.38;;;16.45;100.00
59971;BME280;45825;45.434;9.116;2023-05-20T10:21:02;100264.78;;;16.66;100.00
59971;BME280;45825;45.434;9.116;2023-05-20T10:23:38;100266.44;;;16.67;100.00
59971;BME280;45825;45.434;9.116;2023-05-20T10:26:05;100261.38;;;16.75;100.00
59971;BME280;45825;45.434;9.116;2023-05-20T10:28:33;100262.81;;;16.68;100.00
59971;BME280;45825;45.434;9.116;2023-05-20T10:31:00;100268.91;;;16.58;100.00
59971;BME280;45825;45.434;9.116;2023-05-20T10:33:26;100266.00;;;16.61;100.00
59971;BME280;45825;45.434;9.116;2023-05-20T10:35:53;100261.28;;;16.65;100.00
59971;BME280;45825;45.434;9.116;2023-05-20T10:38:19;100252.72;;;16.61;100.00
59971;BME280;45825;45.434;9.116;2023-05-20T10:40:45;100266.22;;;16.70;100.00
59971;BME280;45825;45.434;9.116;2023-05-20T10:43:13;100264.41;;;16.70;100.00
59971;BME280;45825;45.434;9.116;2023-05-20T10:45:53;100254.38;;;16.74;100.00
59971;BME280;45825;45.434;9.116;2023-05-20T10:48:30;100252.31;;;16.78;100.00
59971;BME280;45825;45.434;9.116;2023-05-20T10:51:00;100250.63;;;16.76;100.00
59971;BME280;45825;45.434;9.116;2023-05-20T10:53:28;100244.72;;;16.73;100.00
59971;BME280;45825;45.434;9.116;2023-05-20T10:55:55;100240.44;;;16.82;100.00
59971;BME280;45825;45.434;9.116;2023-05-20T10:58:21;100233.94;;;16.86;100.00
59971;BME280;45825;45.434;9.116;2023-05-20T11:00:48;100232.56;;;16.92;100.00
59971;BME280;45825;45.434;9.116;2023-05-20T11:03:15;100238.97;;;16.89;100.00
59971;BME280;45825;45.434;9.116;2023-05-20T11:05:43;100241.63;;;16.89;100.00
59971;BME280;45825;45.434;9.116;2023-05-20T11:08:09;100246.41;;;17.07;100.00
59971;BME280;45825;45.434;9.116;2023-05-20T11:10:35;100242.66;;;17.09;100.00
59971;BME280;45825;45.434;9.116;2023-05-20T11:13:02;100253.88;;;17.13;100.00
59971;BME280;45825;45.434;9.116;2023-05-20T11:15:29;100245.91;;;17.13;100.00
59971;BME280;45825;45.434;9.116;2023-05-20T11:17:57;100240.34;;;17.16;100.00
59971;BME280;45825;45.434;9.116;2023-05-20T11:20:24;100229.25;;;17.11;100.00
59971;BME280;45825;45.434;9.116;2023-05-20T11:22:50;100237.72;;;17.04;100.00
59971;BME280;45825;45.434;9.116;2023-05-20T11:25:16;100234.91;;;17.17;100.00
59971;BME280;45825;45.434;9.116;2023-05-20T11:27:42;100234.50;;;17.22;100.00
59971;BME280;45825;45.434;9.116;2023-05-20T11:30:08;100223.88;;;17.22;100.00
59971;BME280;45825;45.434;9.116;2023-05-20T11:32:35;100232.25;;;17.17;100.00
59971;BME280;45825;45.434;9.116;2023-05-20T11:35:00;100237.66;;;17.16;100.00
59971;BME280;45825;45.434;9.116;2023-05-20T11:37:26;100228.34;;;17.22;100.00
59971;BME280;45825;45.434;9.116;2023-05-20T11:40:07;100227.59;;;16.98;100.00
59971;BME280;45825;45.434;9.116;2023-05-20T11:42:33;100229.19;;;16.89;100.00
59971;BME280;45825;45.434;9.116;2023-05-20T11:44:59;100229.66;;;16.95;100.00
59971;BME280;45825;45.434;9.116;2023-05-20T11:47:25;100217.72;;;17.00;100.00
59971;BME280;45825;45.434;9.116;2023-05-20T11:49:51;100218.41;;;17.02;100.00
59971;BME280;45825;45.434;9.116;2023-05-20T11:52:17;100218.41;;;17.02;100.00
59971;BME280;45825;45.434;9.116;2023-05-20T11:54:43;100222.03;;;17.01;100.00
59971;BME280;45825;45.434;9.116;2023-05-20T11:57:10;100224.09;;;16.98;100.00
59971;BME280;45825;45.434;9.116;2023-05-20T11:59:35;100215.66;;;16.93;100.00
59971;BME280;45825;45.434;9.116;2023-05-20T12:02:01;100219.16;;;16.93;100.00
59971;BME280;45825;45.434;9.116;2023-05-20T12:04:26;100219.03;;;16.95;100.00
59971;BME280;45825;45.434;9.116;2023-05-20T12:06:51;100209.50;;;16.92;100.00
59971;BME280;45825;45.434;9.116;2023-05-20T12:09:17;100202.22;;;16.94;100.00
59971;BME280;45825;45.434;9.116;2023-05-20T12:11:42;100200.69;;;16.92;100.00
59971;BME280;45825;45.434;9.116;2023-05-20T12:14:09;100201.25;;;16.95;100.00
59971;BME280;45825;45.434;9.116;2023-05-20T12:16:35;100195.22;;;16.93;100.00
59971;BME280;45825;45.434;9.116;2023-05-20T12:19:01;100201.63;;;17.02;100.00
59971;BME280;45825;45.434;9.116;2023-05-20T12:21:30;100199.91;;;17.12;100.00
59971;BME280;45825;45.434;9.116;2023-05-20T12:23:56;100192.56;;;17.26;100.00
59971;BME280;45825;45.434;9.116;2023-05-20T12:26:23;100190.34;;;17.31;100.00
59971;BME280;45825;45.434;9.116;2023-05-20T12:28:48;100184.31;;;17.29;100.00
59971;BME280;45825;45.434;9.116;2023-05-20T12:31:13;100180.75;;;17.40;100.00
59971;BME280;45825;45.434;9.116;2023-05-20T12:33:39;100182.03;;;17.45;100.00
59971;BME280;45825;45.434;9.116;2023-05-20T12:36:04;100178.72;;;17.53;100.00
59971;BME280;45825;45.434;9.116;2023-05-20T12:38:30;100168.50;;;17.58;100.00
59971;BME280;45825;45.434;9.116;2023-05-20T12:40:55;100171.88;;;17.60;100.00
59971;BME280;45825;45.434;9.116;2023-05-20T12:43:20;100170.72;;;17.53;100.00
59971;BME280;45825;45.434;9.116;2023-05-20T12:45:46;100173.69;;;17.60;100.00